createdAt,value
2019-02-19T00:00:17.455Z,5.23
2019-02-19T00:02:45.677Z,5.23
2019-02-19T00:05:13.945Z,4.77
2019-02-19T00:07:42.223Z,5.60
2019-02-19T00:10:10.435Z,5.80
2019-02-19T00:12:38.675Z,5.10
2019-02-19T00:15:08.555Z,4.77
2019-02-19T00:17:36.931Z,5.33
2019-02-19T00:20:05.388Z,5.40
2019-02-19T00:22:33.626Z,5.10
2019-02-19T00:25:01.871Z,4.97
2019-02-19T00:27:30.085Z,5.13
2019-02-19T00:29:58.312Z,5.93
2019-02-19T00:32:26.561Z,5.23
2019-02-19T00:34:54.785Z,5.00
2019-02-19T00:37:23.261Z,5.30
2019-02-19T00:39:51.492Z,5.43
2019-02-19T00:42:19.731Z,4.70
2019-02-19T00:44:49.457Z,5.50
2019-02-19T00:47:17.756Z,4.90
2019-02-19T00:49:45.996Z,4.63
2019-02-19T00:52:14.212Z,5.67
2019-02-19T00:54:42.459Z,5.20
2019-02-19T00:57:10.676Z,4.93
2019-02-19T00:59:38.896Z,5.10
2019-02-19T01:02:07.140Z,4.80
2019-02-19T01:04:35.364Z,5.00
2019-02-19T01:07:03.587Z,5.57
2019-02-19T01:09:31.819Z,4.97
2019-02-19T01:12:00.063Z,5.00
2019-02-19T01:14:28.519Z,5.23
2019-02-19T01:16:56.735Z,5.10
2019-02-19T01:19:24.978Z,5.40
2019-02-19T01:21:53.208Z,5.17
2019-02-19T01:24:21.437Z,5.43
2019-02-19T01:26:49.676Z,5.20
2019-02-19T01:29:18.148Z,4.97
2019-02-19T01:31:46.365Z,5.20
2019-02-19T01:34:14.840Z,4.60
2019-02-19T01:36:43.067Z,5.27
2019-02-19T01:39:11.303Z,4.80
2019-02-19T01:41:39.515Z,4.80
2019-02-19T01:44:07.988Z,5.33
2019-02-19T01:46:36.223Z,4.93
2019-02-19T01:49:04.444Z,5.20
2019-02-19T01:51:32.700Z,5.40
2019-02-19T01:54:01.145Z,5.30
2019-02-19T01:56:29.667Z,4.87
2019-02-19T01:58:57.907Z,4.67
2019-02-19T02:01:26.166Z,5.17
2019-02-19T02:03:54.399Z,5.20
2019-02-19T02:06:22.639Z,5.10
2019-02-19T02:08:50.892Z,5.83
2019-02-19T02:11:19.129Z,5.20
2019-02-19T02:13:47.607Z,4.73
2019-02-19T02:16:16.063Z,4.83
2019-02-19T02:18:44.284Z,4.93
2019-02-19T02:21:12.516Z,4.90
2019-02-19T02:23:40.760Z,5.20
2019-02-19T02:26:08.980Z,4.83
2019-02-19T02:28:37.229Z,4.73
2019-02-19T02:31:05.444Z,4.67
2019-02-19T02:33:33.689Z,4.97
2019-02-19T02:36:01.919Z,5.20
2019-02-19T02:38:30.132Z,4.73
2019-02-19T02:40:58.381Z,4.60
2019-02-19T02:43:26.616Z,5.43
2019-02-19T02:45:54.836Z,4.93
2019-02-19T02:48:23.053Z,5.13
2019-02-19T02:50:51.310Z,4.80
2019-02-19T02:53:19.789Z,5.13
2019-02-19T02:55:48.039Z,5.07
2019-02-19T02:58:16.505Z,5.30
2019-02-19T03:00:44.958Z,4.60
2019-02-19T03:03:13.209Z,5.23
2019-02-19T03:05:46.316Z,5.53
2019-02-19T03:08:14.796Z,5.33
2019-02-19T03:10:43.040Z,4.80
2019-02-19T03:13:11.256Z,5.00
2019-02-19T03:15:39.497Z,5.17
2019-02-19T03:18:07.974Z,4.80
2019-02-19T03:20:36.214Z,5.00
2019-02-19T03:23:04.428Z,5.30
2019-02-19T03:25:32.664Z,5.47
2019-02-19T03:28:00.882Z,5.37
2019-02-19T03:30:29.126Z,5.30
2019-02-19T03:32:57.350Z,5.33
2019-02-19T03:35:25.851Z,5.20
2019-02-19T03:37:54.060Z,5.40
2019-02-19T03:40:22.284Z,5.43
2019-02-19T03:42:50.521Z,6.20
2019-02-19T03:45:18.740Z,6.03
2019-02-19T03:47:46.980Z,6.03
2019-02-19T03:50:15.195Z,5.83
2019-02-19T03:52:43.432Z,6.03
2019-02-19T03:55:11.666Z,6.17
2019-02-19T03:57:39.879Z,6.13
2019-02-19T04:00:08.492Z,6.63
2019-02-19T04:02:36.715Z,6.70
2019-02-19T04:05:05.532Z,6.23
2019-02-19T04:07:33.784Z,6.70
2019-02-19T04:10:02.023Z,6.60
2019-02-19T04:12:30.241Z,6.63
2019-02-19T04:14:58.483Z,6.00
2019-02-19T04:17:26.701Z,7.30
2019-02-19T04:19:55.182Z,6.70
2019-02-19T04:22:23.410Z,6.60
2019-02-19T04:24:51.644Z,7.33
2019-02-19T04:27:19.864Z,6.97
2019-02-19T04:29:48.334Z,6.73
2019-02-19T04:32:16.784Z,6.93
2019-02-19T04:34:45.024Z,7.10
2019-02-19T04:37:13.509Z,6.30
2019-02-19T04:39:41.721Z,6.33
2019-02-19T04:42:10.197Z,5.83
2019-02-19T04:44:38.427Z,6.87
2019-02-19T04:47:06.660Z,5.47
2019-02-19T04:49:34.892Z,5.87
2019-02-19T04:52:03.135Z,5.57
2019-02-19T04:54:31.348Z,5.90
2019-02-19T04:56:59.571Z,5.97
2019-02-19T04:59:27.805Z,6.57
2019-02-19T05:01:56.024Z,6.93
2019-02-19T05:04:24.280Z,5.70
2019-02-19T05:06:52.731Z,5.83
2019-02-19T05:09:20.977Z,5.67
2019-02-19T05:11:49.211Z,5.93
2019-02-19T05:14:17.431Z,5.07
2019-02-19T05:16:45.907Z,5.50
2019-02-19T05:19:14.125Z,5.70
2019-02-19T05:21:42.609Z,5.73
2019-02-19T05:24:10.843Z,5.80
2019-02-19T05:26:39.260Z,5.30
2019-02-19T05:29:07.488Z,6.20
2019-02-19T05:31:35.731Z,5.90
2019-02-19T05:34:03.959Z,5.70
2019-02-19T05:36:32.195Z,6.17
2019-02-19T05:39:00.436Z,5.77
2019-02-19T05:41:28.643Z,5.40
2019-02-19T05:43:56.888Z,5.80
2019-02-19T05:46:25.105Z,5.47
2019-02-19T05:48:53.344Z,5.97
2019-02-19T05:51:21.559Z,6.23
2019-02-19T05:53:49.815Z,5.53
2019-02-19T05:56:18.028Z,5.63
2019-02-19T05:58:46.288Z,5.13
2019-02-19T06:01:14.549Z,5.63
2019-02-19T06:03:42.852Z,5.77
2019-02-19T06:06:11.084Z,5.50
2019-02-19T06:08:39.542Z,5.50
2019-02-19T06:11:07.776Z,5.70
2019-02-19T06:13:35.992Z,5.90
2019-02-19T06:16:04.232Z,5.97
2019-02-19T06:18:32.479Z,6.13
2019-02-19T06:21:00.716Z,5.67
2019-02-19T06:23:28.944Z,5.67
2019-02-19T06:25:57.241Z,6.07
2019-02-19T06:28:25.504Z,5.23
2019-02-19T06:30:53.730Z,5.40
2019-02-19T06:33:21.948Z,5.07
2019-02-19T06:35:50.306Z,5.50
2019-02-19T06:38:18.515Z,5.20
2019-02-19T06:40:46.739Z,4.80
2019-02-19T06:43:14.979Z,5.47
2019-02-19T06:45:43.200Z,5.37
2019-02-19T06:48:11.673Z,5.23
2019-02-19T06:50:39.900Z,5.50
2019-02-19T06:53:08.350Z,5.17
2019-02-19T06:55:36.608Z,5.17
2019-02-19T06:58:04.832Z,5.07
2019-02-19T07:00:33.044Z,4.73
2019-02-19T07:03:08.866Z,5.13
2019-02-19T07:05:37.080Z,5.40
2019-02-19T07:08:05.322Z,5.63
2019-02-19T07:10:33.544Z,5.00
2019-02-19T07:13:01.784Z,5.37
2019-02-19T07:15:30.233Z,5.33
2019-02-19T07:17:58.474Z,5.20
2019-02-19T07:20:26.924Z,5.07
2019-02-19T07:22:55.179Z,5.50
2019-02-19T07:25:23.383Z,5.60
2019-02-19T07:27:51.626Z,4.93
2019-02-19T07:30:19.844Z,4.83
2019-02-19T07:32:48.059Z,5.30
2019-02-19T07:35:16.300Z,5.53
2019-02-19T07:37:44.526Z,6.73
2019-02-19T07:40:12.764Z,6.27
2019-02-19T07:42:40.979Z,5.60
2019-02-19T07:45:11.069Z,5.00
2019-02-19T07:47:39.328Z,5.07
2019-02-19T07:50:11.641Z,5.47
2019-02-19T07:52:39.860Z,5.10
2019-02-19T07:55:09.550Z,5.80
2019-02-19T07:57:37.760Z,6.03
2019-02-19T08:00:13.594Z,5.23
2019-02-19T08:02:41.809Z,4.93
2019-02-19T08:05:10.265Z,5.20
2019-02-19T08:07:38.496Z,4.70
2019-02-19T08:10:09.338Z,5.10
2019-02-19T08:12:37.598Z,5.00
2019-02-19T08:15:10.744Z,5.60
2019-02-19T08:17:38.972Z,5.00
2019-02-19T08:20:15.315Z,6.10
2019-02-19T08:22:38.879Z,5.03
2019-02-19T08:25:07.156Z,6.07
2019-02-19T08:27:35.396Z,4.83
2019-02-19T08:30:04.016Z,5.27
2019-02-19T08:32:32.264Z,5.20
2019-02-19T08:35:00.715Z,5.00
2019-02-19T08:37:28.950Z,5.47
2019-02-19T08:39:57.168Z,4.90
2019-02-19T08:42:25.449Z,4.70
2019-02-19T08:44:53.749Z,5.50
2019-02-19T08:47:21.984Z,4.63
2019-02-19T08:49:50.200Z,6.07
2019-02-19T08:52:18.837Z,4.90
2019-02-19T08:54:47.291Z,4.97
2019-02-19T08:57:15.520Z,5.47
2019-02-19T08:59:43.764Z,6.10
2019-02-19T09:02:12.236Z,5.30
2019-02-19T09:04:40.452Z,6.00
2019-02-19T09:07:08.693Z,4.67
2019-02-19T09:09:36.913Z,4.00
2019-02-19T09:12:05.220Z,5.20
2019-02-19T09:14:33.452Z,4.80
2019-02-19T09:17:01.703Z,4.33
2019-02-19T09:19:29.931Z,4.93
2019-02-19T09:21:58.235Z,5.50
2019-02-19T09:24:26.474Z,5.43
2019-02-19T09:26:54.688Z,5.37
2019-02-19T09:29:22.924Z,5.00
2019-02-19T09:31:51.152Z,5.77
2019-02-19T09:34:19.407Z,4.53
2019-02-19T09:36:47.857Z,4.70
2019-02-19T09:39:16.095Z,5.13
2019-02-19T09:41:44.563Z,4.17
2019-02-19T09:44:12.776Z,5.43
2019-02-19T09:46:41.031Z,3.97
2019-02-19T09:49:09.247Z,4.47
2019-02-19T09:51:37.496Z,4.90
2019-02-19T09:54:05.708Z,4.13
2019-02-19T09:56:33.937Z,4.23
2019-02-19T09:59:02.169Z,4.43
2019-02-19T10:01:30.413Z,4.90
2019-02-19T10:03:58.656Z,3.70
2019-02-19T10:06:26.900Z,4.97
2019-02-19T10:08:55.348Z,4.87
2019-02-19T10:11:23.591Z,4.17
2019-02-19T10:13:51.824Z,4.30
2019-02-19T10:16:20.068Z,3.73
2019-02-19T10:18:48.312Z,4.30
2019-02-19T10:21:16.781Z,4.67
2019-02-19T10:23:45.024Z,5.13
2019-02-19T10:26:13.279Z,4.93
2019-02-19T10:28:41.503Z,4.60
2019-02-19T10:31:09.744Z,4.60
2019-02-19T10:33:37.991Z,4.93
2019-02-19T10:36:06.234Z,4.50
2019-02-19T10:38:34.469Z,4.63
2019-02-19T10:41:02.703Z,4.10
2019-02-19T10:43:30.931Z,4.10
2019-02-19T10:45:59.168Z,3.80
2019-02-19T10:48:27.416Z,4.77
2019-02-19T10:50:55.632Z,4.27
2019-02-19T10:53:23.876Z,5.83
2019-02-19T10:55:52.109Z,4.00
2019-02-19T10:58:22.915Z,4.17
2019-02-19T11:00:50.300Z,5.20
2019-02-19T11:03:18.516Z,5.33
2019-02-19T11:05:46.757Z,3.67
2019-02-19T11:08:14.996Z,3.63
2019-02-19T11:10:43.240Z,3.83
2019-02-19T11:13:11.688Z,3.67
2019-02-19T11:15:39.946Z,3.37
2019-02-19T11:18:08.152Z,3.13
2019-02-19T11:20:36.400Z,3.40
2019-02-19T11:23:04.611Z,4.23
2019-02-19T11:25:33.083Z,3.23
2019-02-19T11:28:01.295Z,3.03
2019-02-19T11:30:29.541Z,3.93
2019-02-19T11:32:57.763Z,2.83
2019-02-19T11:35:26.223Z,3.47
2019-02-19T11:37:54.439Z,3.20
2019-02-19T11:40:22.908Z,2.40
2019-02-19T11:42:51.126Z,3.23
2019-02-19T11:45:19.629Z,3.27
2019-02-19T11:47:47.859Z,2.67
2019-02-19T11:50:16.115Z,3.17
2019-02-19T11:52:44.380Z,3.53
2019-02-19T11:55:15.248Z,2.77
2019-02-19T11:57:43.485Z,4.27
2019-02-19T12:00:17.032Z,4.10
2019-02-19T12:02:45.276Z,3.13
2019-02-19T12:05:13.497Z,2.77
2019-02-19T12:07:41.719Z,2.47
2019-02-19T12:10:11.941Z,3.77
2019-02-19T12:12:40.136Z,3.00
2019-02-19T12:15:12.085Z,3.97
2019-02-19T12:17:40.321Z,3.17
2019-02-19T12:20:10.689Z,4.37
2019-02-19T12:22:38.892Z,3.73
2019-02-19T12:25:08.376Z,2.90
2019-02-19T12:27:36.591Z,3.50
2019-02-19T12:30:08.314Z,4.30
2019-02-19T12:32:36.534Z,3.03
2019-02-19T12:35:05.732Z,3.50
2019-02-19T12:37:33.959Z,2.80
2019-02-19T12:40:02.428Z,2.80
2019-02-19T12:42:30.648Z,2.70
2019-02-19T12:44:58.876Z,3.00
2019-02-19T12:47:27.117Z,3.63
2019-02-19T12:49:55.328Z,5.80
2019-02-19T12:52:23.570Z,12.20
2019-02-19T12:54:51.789Z,10.73
2019-02-19T12:57:20.036Z,14.53
2019-02-19T12:59:56.265Z,8.03
2019-02-19T13:02:19.643Z,23.10
2019-02-19T13:04:48.015Z,12.23
2019-02-19T13:07:16.270Z,22.20
2019-02-19T13:09:44.493Z,28.55
2019-02-19T13:12:12.737Z,29.93
2019-02-19T13:14:41.000Z,30.57
2019-02-19T13:17:09.479Z,39.53
2019-02-19T13:19:37.760Z,22.27
2019-02-19T13:22:06.232Z,22.70
2019-02-19T13:24:34.457Z,13.70
2019-02-19T13:27:02.716Z,17.40
2019-02-19T13:29:30.940Z,16.53
2019-02-19T13:31:59.201Z,16.87
2019-02-19T13:34:27.416Z,17.63
2019-02-19T13:36:55.676Z,10.37
2019-02-19T13:39:23.911Z,13.40
2019-02-19T13:41:52.196Z,12.87
2019-02-19T13:44:20.416Z,13.83
2019-02-19T13:46:48.665Z,12.00
2019-02-19T13:49:17.326Z,18.83
2019-02-19T13:51:45.668Z,13.70
2019-02-19T13:54:15.533Z,10.67
2019-02-19T13:56:44.069Z,13.93
2019-02-19T13:59:12.279Z,11.17
2019-02-19T14:01:40.520Z,10.93
2019-02-19T14:04:08.736Z,10.00
2019-02-19T14:06:36.975Z,9.20
2019-02-19T14:09:05.379Z,14.23
2019-02-19T14:11:33.653Z,15.97
2019-02-19T14:14:19.799Z,17.63
2019-02-19T14:16:49.700Z,11.63
2019-02-19T14:19:21.526Z,15.10
2019-02-19T14:21:51.158Z,12.33
2019-02-19T14:24:23.749Z,10.93
2019-02-19T14:27:02.456Z,12.03
2019-02-19T14:29:50.232Z,14.60
2019-02-19T14:32:20.367Z,13.57
2019-02-19T14:35:02.106Z,11.37
2019-02-19T14:37:37.900Z,12.90
2019-02-19T14:40:15.100Z,12.67
2019-02-19T14:42:59.820Z,11.23
2019-02-19T14:45:35.446Z,16.43
2019-02-19T14:48:21.717Z,14.53
2019-02-19T14:50:51.569Z,17.70
2019-02-19T14:53:24.453Z,12.17
2019-02-19T14:55:54.372Z,18.70
2019-02-19T14:58:40.541Z,13.33
2019-02-19T15:01:13.344Z,14.67
2019-02-19T15:03:59.504Z,14.37
2019-02-19T15:06:32.372Z,13.83
2019-02-19T15:09:02.242Z,8.53
2019-02-19T15:11:37.892Z,12.80
2019-02-19T15:14:25.753Z,17.47
2019-02-19T15:17:11.856Z,15.27
2019-02-19T15:19:50.433Z,16.93
2019-02-19T15:22:20.525Z,16.07
2019-02-19T15:24:56.336Z,14.03
2019-02-19T15:27:26.427Z,18.07
2019-02-19T15:30:01.993Z,13.10
2019-02-19T15:32:37.587Z,14.57
2019-02-19T15:35:07.556Z,14.40
2019-02-19T15:37:53.431Z,14.73
2019-02-19T15:40:32.596Z,14.67
2019-02-19T15:43:02.704Z,12.87
2019-02-19T15:45:35.248Z,16.27
2019-02-19T15:48:07.762Z,13.03
2019-02-19T15:50:53.693Z,15.07
2019-02-19T15:53:23.576Z,16.30
2019-02-19T15:55:56.356Z,17.27
2019-02-19T15:58:35.449Z,14.53
2019-02-19T16:01:21.268Z,17.30
2019-02-19T16:04:03.502Z,12.57
2019-02-19T16:06:49.405Z,9.63
2019-02-19T16:09:31.445Z,9.27
2019-02-19T16:12:17.325Z,12.47
2019-02-19T16:14:56.272Z,18.67
2019-02-19T16:17:42.484Z,11.90
2019-02-19T16:20:28.907Z,9.30
2019-02-19T16:23:14.768Z,11.77
2019-02-19T16:26:01.312Z,10.47
2019-02-19T16:28:33.850Z,11.73
2019-02-19T16:31:15.485Z,9.33
2019-02-19T16:33:54.329Z,11.80
2019-02-19T16:36:24.208Z,9.07
2019-02-19T16:39:09.181Z,9.97
2019-02-19T16:41:42.036Z,11.83
2019-02-19T16:44:29.987Z,11.67
2019-02-19T16:47:11.963Z,6.30
2019-02-19T16:49:48.122Z,11.80
2019-02-19T16:52:34.043Z,9.17
2019-02-19T16:55:04.137Z,12.80
2019-02-19T16:57:45.983Z,12.03
2019-02-19T17:00:19.251Z,10.10
2019-02-19T17:02:57.757Z,9.13
2019-02-19T17:05:33.569Z,14.43
2019-02-19T17:08:09.187Z,21.00
2019-02-19T17:10:44.993Z,22.10
2019-02-19T17:13:20.568Z,18.07
2019-02-19T17:16:05.272Z,13.20
2019-02-19T17:18:50.011Z,11.90
2019-02-19T17:21:28.832Z,13.43
2019-02-19T17:23:58.715Z,14.60
2019-02-19T17:26:34.488Z,23.27
2019-02-19T17:29:10.336Z,17.20
2019-02-19T17:31:42.860Z,12.13
2019-02-19T17:34:12.738Z,14.77
2019-02-19T17:36:51.580Z,14.30
2019-02-19T17:39:36.504Z,11.50
2019-02-19T17:42:08.816Z,22.53
2019-02-19T17:44:38.675Z,17.77
2019-02-19T17:47:26.356Z,15.97
2019-02-19T17:50:11.988Z,14.70
2019-02-19T17:52:56.736Z,11.77
2019-02-19T17:55:29.259Z,12.07
2019-02-19T17:58:01.832Z,11.23
2019-02-19T18:00:34.529Z,12.80
2019-02-19T18:03:10.467Z,14.23
2019-02-19T18:05:46.363Z,12.10
2019-02-19T18:08:18.932Z,10.57
2019-02-19T18:10:51.476Z,11.77
2019-02-19T18:13:21.360Z,11.27
2019-02-19T18:16:03.155Z,12.77
2019-02-19T18:18:41.720Z,9.60
2019-02-19T18:21:09.972Z,12.20
2019-02-19T18:23:38.184Z,10.43
2019-02-19T18:26:06.424Z,11.17
2019-02-19T18:28:34.660Z,13.20
2019-02-19T18:31:02.883Z,10.27
2019-02-19T18:33:31.124Z,7.83
2019-02-19T18:35:59.380Z,7.77
2019-02-19T18:38:27.613Z,7.70
2019-02-19T18:40:56.085Z,8.87
2019-02-19T18:43:24.312Z,11.27
2019-02-19T18:45:52.817Z,7.50
2019-02-19T18:48:21.073Z,7.40
2019-02-19T18:50:58.151Z,7.37
2019-02-19T18:53:19.491Z,10.53
2019-02-19T18:55:47.969Z,9.17
2019-02-19T18:58:16.183Z,10.70
2019-02-19T19:00:44.418Z,5.40
2019-02-19T19:03:12.664Z,6.80
2019-02-19T19:05:40.885Z,7.27
2019-02-19T19:08:09.107Z,9.20
2019-02-19T19:10:37.352Z,5.43
2019-02-19T19:13:05.572Z,4.67
2019-02-19T19:15:34.046Z,7.60
2019-02-19T19:18:02.497Z,5.50
2019-02-19T19:20:30.735Z,6.90
2019-02-19T19:22:58.953Z,5.30
2019-02-19T19:25:27.197Z,7.30
2019-02-19T19:27:55.532Z,5.90
2019-02-19T19:30:23.834Z,6.07
2019-02-19T19:32:52.296Z,9.10
2019-02-19T19:35:20.528Z,8.90
2019-02-19T19:37:48.755Z,5.70
2019-02-19T19:40:16.982Z,6.33
2019-02-19T19:42:45.221Z,4.33
2019-02-19T19:45:13.445Z,7.13
2019-02-19T19:47:41.699Z,5.07
2019-02-19T19:50:10.985Z,5.13
2019-02-19T19:52:39.200Z,6.03
2019-02-19T19:55:08.979Z,6.33
2019-02-19T19:57:37.453Z,6.83
2019-02-19T20:00:08.214Z,5.47
2019-02-19T20:02:36.460Z,7.03
2019-02-19T20:05:07.035Z,5.93
2019-02-19T20:07:35.279Z,6.43
2019-02-19T20:10:04.335Z,5.23
2019-02-19T20:12:32.572Z,6.17
2019-02-19T20:15:00.791Z,6.63
2019-02-19T20:17:29.032Z,4.43
2019-02-19T20:19:57.288Z,5.63
2019-02-19T20:22:25.529Z,5.60
2019-02-19T20:24:53.793Z,5.13
2019-02-19T20:27:22.026Z,5.30
2019-02-19T20:29:50.328Z,4.00
2019-02-19T20:32:18.816Z,4.27
2019-02-19T20:34:48.168Z,4.50
2019-02-19T20:37:16.435Z,6.13
2019-02-19T20:39:44.676Z,5.07
2019-02-19T20:42:12.918Z,5.57
2019-02-19T20:44:41.158Z,4.10
2019-02-19T20:47:09.381Z,4.27
2019-02-19T20:49:37.640Z,5.13
2019-02-19T20:52:05.922Z,4.53
2019-02-19T20:54:34.232Z,5.30
2019-02-19T20:57:02.677Z,4.93
2019-02-19T20:59:30.916Z,5.87
2019-02-19T21:01:59.138Z,5.23
2019-02-19T21:04:27.384Z,4.87
2019-02-19T21:06:55.603Z,5.70
2019-02-19T21:09:23.819Z,4.70
2019-02-19T21:11:52.070Z,4.53
2019-02-19T21:14:20.310Z,5.00
2019-02-19T21:16:48.515Z,4.03
2019-02-19T21:19:16.773Z,6.00
2019-02-19T21:21:45.317Z,7.23
2019-02-19T21:24:13.618Z,4.70
2019-02-19T21:26:41.837Z,4.60
2019-02-19T21:29:10.126Z,4.90
2019-02-19T21:31:40.278Z,5.03
2019-02-19T21:34:08.307Z,5.97
2019-02-19T21:36:36.544Z,6.60
2019-02-19T21:39:05.500Z,5.03
2019-02-19T21:41:33.976Z,4.30
2019-02-19T21:44:02.187Z,6.27
2019-02-19T21:46:30.432Z,4.80
2019-02-19T21:48:58.671Z,5.43
2019-02-19T21:51:26.916Z,4.47
2019-02-19T21:53:55.142Z,5.07
2019-02-19T21:56:23.370Z,4.47
2019-02-19T21:58:51.614Z,3.57
2019-02-19T22:01:19.823Z,4.13
2019-02-19T22:03:48.064Z,5.53
2019-02-19T22:06:16.285Z,4.67
2019-02-19T22:08:44.524Z,4.40
2019-02-19T22:11:12.984Z,4.77
2019-02-19T22:13:41.217Z,5.57
2019-02-19T22:16:09.455Z,6.13
2019-02-19T22:18:37.672Z,4.13
2019-02-19T22:21:07.547Z,4.63
2019-02-19T22:23:35.768Z,4.20
2019-02-19T22:26:04.085Z,5.17
2019-02-19T22:28:32.305Z,3.53
2019-02-19T22:31:00.545Z,4.27
2019-02-19T22:33:28.759Z,3.37
2019-02-19T22:35:57.029Z,4.43
2019-02-19T22:38:25.252Z,4.23
2019-02-19T22:40:55.395Z,4.20
2019-02-19T22:43:23.740Z,4.77
2019-02-19T22:45:51.961Z,3.97
2019-02-19T22:48:20.202Z,4.27
2019-02-19T22:50:48.425Z,4.20
2019-02-19T22:53:34.587Z,3.83
2019-02-19T22:56:04.466Z,3.73
2019-02-19T22:58:32.692Z,5.37
2019-02-19T23:01:02.564Z,4.20
2019-02-19T23:03:30.781Z,4.20
2019-02-19T23:05:59.008Z,5.93
2019-02-19T23:08:27.253Z,4.23
2019-02-19T23:10:55.487Z,4.43
2019-02-19T23:13:23.940Z,4.10
2019-02-19T23:15:52.176Z,2.97
2019-02-19T23:18:20.404Z,4.57
2019-02-19T23:20:48.630Z,4.40
2019-02-19T23:23:16.859Z,3.93
2019-02-19T23:25:45.106Z,3.87
2019-02-19T23:28:13.347Z,5.03
2019-02-19T23:30:41.566Z,4.90
2019-02-19T23:33:09.811Z,3.67
2019-02-19T23:35:48.783Z,3.77
2019-02-19T23:38:17.019Z,4.87
2019-02-19T23:40:45.260Z,4.23
2019-02-19T23:43:13.480Z,3.57
2019-02-19T23:45:41.720Z,3.80
2019-02-19T23:48:09.960Z,3.87
2019-02-19T23:50:38.431Z,4.97
2019-02-19T23:53:06.643Z,5.23
2019-02-19T23:55:34.881Z,3.27
2019-02-19T23:58:03.100Z,4.10
